sensor_id;sensor_type;location;lat;lon;timestamp;pressure;altitude;pressure_sealevel;temperature;humidity
5966;BME280;3009;43.224;27.976;2023-01-09T00:01:28;101137.53;;;7.44;100.00
5966;BME280;3009;43.224;27.976;2023-01-09T00:03:57;101137.03;;;7.37;100.00
5966;BME280;3009;43.224;27.976;2023-01-09T00:06:25;101134.91;;;7.34;100.00
5966;BME280;3009;43.224;27.976;2023-01-09T00:08:54;101143.97;;;7.33;100.00
5966;BME280;3009;43.224;27.976;2023-01-09T00:11:22;101145.56;;;7.34;100.00
5966;BME280;3009;43.224;27.976;2023-01-09T00:13:51;101133.03;;;7.34;100.00
5966;BME280;3009;43.224;27.976;2023-01-09T00:16:21;101136.22;;;7.41;100.00
5966;BME280;3009;43.224;27.976;2023-01-09T00:18:49;101139.16;;;7.30;100.00
5966;BME280;3009;43.224;27.976;2023-01-09T00:21:19;101130.09;;;7.20;100.00
5966;BME280;3009;43.224;27.976;2023-01-09T00:23:47;101139.41;;;7.23;100.00
5966;BME280;3009;43.224;27.976;2023-01-09T00:26:17;101128.47;;;7.09;100.00
5966;BME280;3009;43.224;27.976;2023-01-09T00:28:47;101132.72;;;7.05;100.00
5966;BME280;3009;43.224;27.976;2023-01-09T00:31:16;101129.53;;;7.03;100.00
5966;BME280;3009;43.224;27.976;2023-01-09T00:33:58;101139.94;;;7.09;100.00
5966;BME280;3009;43.224;27.976;2023-01-09T00:36:27;101133.81;;;7.09;100.00
5966;BME280;3009;43.224;27.976;2023-01-09T00:38:56;101131.94;;;7.15;100.00
5966;BME280;3009;43.224;27.976;2023-01-09T00:41:25;101125.03;;;7.08;100.00
5966;BME280;3009;43.224;27.976;2023-01-09T00:43:57;101116.72;;;7.05;100.00
5966;BME280;3009;43.224;27.976;2023-01-09T00:46:29;101119.41;;;7.00;100.00
5966;BME280;3009;43.224;27.976;2023-01-09T00:49:02;101115.41;;;6.97;100.00
5966;BME280;3009;43.224;27.976;2023-01-09T00:51:32;101116.19;;;6.92;100.00
5966;BME280;3009;43.224;27.976;2023-01-09T00:54:03;101112.72;;;6.97;100.00
5966;BME280;3009;43.224;27.976;2023-01-09T00:56:33;101111.69;;;7.08;100.00
5966;BME280;3009;43.224;27.976;2023-01-09T00:59:03;101106.63;;;7.07;100.00
5966;BME280;3009;43.224;27.976;2023-01-09T01:01:32;101111.94;;;7.02;100.00
5966;BME280;3009;43.224;27.976;2023-01-09T01:04:02;101108.22;;;7.03;100.00
5966;BME280;3009;43.224;27.976;2023-01-09T01:06:51;101108.19;;;7.08;100.00
5966;BME280;3009;43.224;27.976;2023-01-09T01:09:37;101104.47;;;7.04;100.00
5966;BME280;3009;43.224;27.976;2023-01-09T01:12:05;101103.94;;;7.07;100.00
5966;BME280;3009;43.224;27.976;2023-01-09T01:14:34;101094.34;;;7.06;100.00
5966;BME280;3009;43.224;27.976;2023-01-09T01:17:02;101084.75;;;7.10;100.00
5966;BME280;3009;43.224;27.976;2023-01-09T01:19:32;101081.25;;;7.09;100.00
5966;BME280;3009;43.224;27.976;2023-01-09T01:22:02;101076.19;;;7.08;100.00
5966;BME280;3009;43.224;27.976;2023-01-09T01:24:30;101069.28;;;7.07;100.00
5966;BME280;3009;43.224;27.976;2023-01-09T01:26:58;101071.94;;;7.02;100.00
5966;BME280;3009;43.224;27.976;2023-01-09T01:29:26;101066.06;;;7.05;100.00
5966;BME280;3009;43.224;27.976;2023-01-09T01:31:55;101059.41;;;7.07;100.00
5966;BME280;3009;43.224;27.976;2023-01-09T01:34:23;101050.09;;;7.00;100.00
5966;BME280;3009;43.224;27.976;2023-01-09T01:36:53;101059.41;;;6.97;100.00
5966;BME280;3009;43.224;27.976;2023-01-09T01:39:21;101047.69;;;6.98;100.00
5966;BME280;3009;43.224;27.976;2023-01-09T01:41:49;101040.50;;;6.94;100.00
5966;BME280;3009;43.224;27.976;2023-01-09T01:47:28;101036.75;;;6.84;100.00
5966;BME280;3009;43.224;27.976;2023-01-09T01:49:59;101029.03;;;6.83;100.00
5966;BME280;3009;43.224;27.976;2023-01-09T01:52:31;101024.47;;;6.83;100.00
5966;BME280;3009;43.224;27.976;2023-01-09T01:55:02;101020.75;;;6.84;100.00
5966;BME280;3009;43.224;27.976;2023-01-09T01:57:32;101025.03;;;6.90;100.00
5966;BME280;3009;43.224;27.976;2023-01-09T02:00:02;101020.78;;;6.95;100.00
5966;BME280;3009;43.224;27.976;2023-01-09T02:02:31;101020.47;;;7.01;100.00
5966;BME280;3009;43.224;27.976;2023-01-09T02:05:00;101016.22;;;7.05;100.00
5966;BME280;3009;43.224;27.976;2023-01-09T02:07:30;101014.88;;;7.08;100.00
5966;BME280;3009;43.224;27.976;2023-01-09T02:09:59;101009.53;;;7.13;100.00
5966;BME280;3009;43.224;27.976;2023-01-09T02:12:27;101013.78;;;7.24;100.00
5966;BME280;3009;43.224;27.976;2023-01-09T02:14:59;101006.88;;;7.23;100.00
5966;BME280;3009;43.224;27.976;2023-01-09T02:17:40;101011.41;;;7.28;100.00
5966;BME280;3009;43.224;27.976;2023-01-09T02:20:42;101007.13;;;7.22;100.00
5966;BME280;3009;43.224;27.976;2023-01-09T02:23:42;101007.38;;;7.31;100.00
5966;BME280;3009;43.224;27.976;2023-01-09T02:27:02;101004.44;;;7.32;100.00
5966;BME280;3009;43.224;27.976;2023-01-09T02:32:44;101005.78;;;7.30;100.00
5966;BME280;3009;43.224;27.976;2023-01-09T02:35:27;101000.19;;;7.31;100.00
5966;BME280;3009;43.224;27.976;2023-01-09T02:38:08;101002.03;;;7.31;100.00
5966;BME280;3009;43.224;27.976;2023-01-09T02:40:43;100999.91;;;7.27;100.00
5966;BME280;3009;43.224;27.976;2023-01-09T02:43:14;100999.69;;;7.19;100.00
5966;BME280;3009;43.224;27.976;2023-01-09T02:45:42;101004.19;;;7.28;100.00
5966;BME280;3009;43.224;27.976;2023-01-09T02:48:12;100988.97;;;7.29;100.00
5966;BME280;3009;43.224;27.976;2023-01-09T02:50:45;100996.19;;;7.23;100.00
5966;BME280;3009;43.224;27.976;2023-01-09T02:56:26;101000.44;;;7.40;100.00
5966;BME280;3009;43.224;27.976;2023-01-09T02:59:19;100991.88;;;7.38;100.00
5966;BME280;3009;43.224;27.976;2023-01-09T03:01:55;101001.50;;;7.39;100.00
5966;BME280;3009;43.224;27.976;2023-01-09T03:04:40;100988.69;;;7.46;100.00
5966;BME280;3009;43.224;27.976;2023-01-09T03:07:14;100985.47;;;7.44;100.00
5966;BME280;3009;43.224;27.976;2023-01-09T03:09:46;100992.69;;;7.38;100.00
5966;BME280;3009;43.224;27.976;2023-01-09T03:12:19;100993.75;;;7.48;100.00
5966;BME280;3009;43.224;27.976;2023-01-09T03:14:52;100990.53;;;7.45;100.00
5966;BME280;3009;43.224;27.976;2023-01-09T03:17:26;100986.28;;;7.44;100.00
5966;BME280;3009;43.224;27.976;2023-01-09T03:19:58;100988.69;;;7.46;100.00
5966;BME280;3009;43.224;27.976;2023-01-09T03:22:28;100979.38;;;7.38;100.00
5966;BME280;3009;43.224;27.976;2023-01-09T03:24:56;100988.16;;;7.28;100.00
5966;BME280;3009;43.224;27.976;2023-01-09T03:27:24;100987.63;;;7.32;100.00
5966;BME280;3009;43.224;27.976;2023-01-09T03:29:52;100990.31;;;7.26;100.00
5966;BME280;3009;43.224;27.976;2023-01-09T03:32:22;100993.00;;;7.26;100.00
5966;BME280;3009;43.224;27.976;2023-01-09T03:34:50;100990.84;;;7.28;100.00
5966;BME280;3009;43.224;27.976;2023-01-09T03:37:20;101001.53;;;7.23;100.00
5966;BME280;3009;43.224;27.976;2023-01-09T03:39:48;100985.53;;;7.23;100.00
5966;BME280;3009;43.224;27.976;2023-01-09T03:42:16;100991.34;;;7.31;100.00
5966;BME280;3009;43.224;27.976;2023-01-09T03:44:44;100998.88;;;7.23;100.00
5966;BME280;3009;43.224;27.976;2023-01-09T03:47:13;100997.00;;;7.24;100.00
5966;BME280;3009;43.224;27.976;2023-01-09T03:49:41;101004.72;;;7.25;100.00
5966;BME280;3009;43.224;27.976;2023-01-09T03:52:09;101005.78;;;7.24;100.00
5966;BME280;3009;43.224;27.976;2023-01-09T03:54:41;101005.78;;;7.30;100.00
5966;BME280;3009;43.224;27.976;2023-01-09T03:57:09;100999.69;;;7.19;100.00
5966;BME280;3009;43.224;27.976;2023-01-09T03:59:37;100993.00;;;7.16;100.00
5966;BME280;3009;43.224;27.976;2023-01-09T04:02:06;100998.34;;;7.16;100.00
5966;BME280;3009;43.224;27.976;2023-01-09T04:04:34;100995.13;;;7.19;100.00
5966;BME280;3009;43.224;27.976;2023-01-09T04:07:02;100993.00;;;7.16;100.00
5966;BME280;3009;43.224;27.976;2023-01-09T04:09:30;101001.25;;;7.09;100.00
5966;BME280;3009;43.224;27.976;2023-01-09T04:12:00;101003.41;;;7.07;100.00
5966;BME280;3009;43.224;27.976;2023-01-09T04:14:28;101000.22;;;7.05;100.00
5966;BME280;3009;43.224;27.976;2023-01-09T04:16:56;100999.69;;;6.98;100.00
5966;BME280;3009;43.224;27.976;2023-01-09T04:19:25;100986.38;;;6.93;100.00
5966;BME280;3009;43.224;27.976;2023-01-09T04:21:53;100998.09;;;6.97;100.00
5966;BME280;3009;43.224;27.976;2023-01-09T04:24:22;100989.56;;;7.05;100.00
5966;BME280;3009;43.224;27.976;2023-01-09T04:26:50;100999.41;;;7.10;100.00
5966;BME280;3009;43.224;27.976;2023-01-09T04:29:20;100990.88;;;7.03;100.00
5966;BME280;3009;43.224;27.976;2023-01-09T04:31:48;100990.88;;;7.03;100.00
5966;BME280;3009;43.224;27.976;2023-01-09T04:34:16;100982.09;;;7.13;100.00
5966;BME280;3009;43.224;27.976;2023-01-09T04:36:44;100982.06;;;7.07;100.00
5966;BME280;3009;43.224;27.976;2023-01-09T04:39:13;100976.50;;;7.04;100.00
5966;BME280;3009;43.224;27.976;2023-01-09T04:41:41;100980.75;;;7.00;100.00
5966;BME280;3009;43.224;27.976;2023-01-09T04:44:21;100978.34;;;7.03;100.00
5966;BME280;3009;43.224;27.976;2023-01-09T04:46:53;100980.19;;;7.08;100.00
5966;BME280;3009;43.224;27.976;2023-01-09T04:49:21;100974.38;;;7.01;100.00
5966;BME280;3009;43.224;27.976;2023-01-09T04:51:50;100976.22;;;7.00;100.00
5966;BME280;3009;43.224;27.976;2023-01-09T04:54:18;100975.69;;;7.03;100.00
5966;BME280;3009;43.224;27.976;2023-01-09T04:56:47;100972.47;;;7.06;100.00
5966;BME280;3009;43.224;27.976;2023-01-09T04:59:15;100975.16;;;7.01;100.00
5966;BME280;3009;43.224;27.976;2023-01-09T05:01:45;100977.00;;;7.06;100.00
5966;BME280;3009;43.224;27.976;2023-01-09T05:04:13;100974.34;;;7.16;100.00
5966;BME280;3009;43.224;27.976;2023-01-09T05:06:41;100978.59;;;7.17;100.00
5966;BME280;3009;43.224;27.976;2023-01-09T05:09:10;100989.28;;;7.12;100.00
5966;BME280;3009;43.224;27.976;2023-01-09T05:11:38;100988.72;;;7.15;100.00
5966;BME280;3009;43.224;27.976;2023-01-09T05:14:06;100996.19;;;7.08;100.00
5966;BME280;3009;43.224;27.976;2023-01-09T05:16:34;100992.22;;;7.16;100.00
5966;BME280;3009;43.224;27.976;2023-01-09T05:19:04;100983.94;;;7.12;100.00
5966;BME280;3009;43.224;27.976;2023-01-09T05:21:32;100980.75;;;7.10;100.00
5966;BME280;3009;43.224;27.976;2023-01-09T05:24:00;100978.63;;;7.07;100.00
5966;BME280;3009;43.224;27.976;2023-01-09T05:26:28;100985.03;;;6.96;100.00
5966;BME280;3009;43.224;27.976;2023-01-09T05:28:57;100984.22;;;6.95;100.00
5966;BME280;3009;43.224;27.976;2023-01-09T05:31:26;100978.38;;;6.93;100.00
5966;BME280;3009;43.224;27.976;2023-01-09T05:33:54;100980.50;;;6.91;100.00
5966;BME280;3009;43.224;27.976;2023-01-09T05:36:26;100973.84;;;6.94;100.00
5966;BME280;3009;43.224;27.976;2023-01-09T05:38:55;100977.03;;;6.90;100.00
5966;BME280;3009;43.224;27.976;2023-01-09T05:41:24;100977.28;;;6.94;100.00
5966;BME280;3009;43.224;27.976;2023-01-09T05:43:52;100987.69;;;6.96;100.00
5966;BME280;3009;43.224;27.976;2023-01-09T05:46:20;100980.22;;;6.92;100.00
5966;BME280;3009;43.224;27.976;2023-01-09T05:48:48;100979.44;;;6.92;100.00
5966;BME280;3009;43.224;27.976;2023-01-09T05:51:17;100974.38;;;6.90;100.00
5966;BME280;3009;43.224;27.976;2023-01-09T05:53:46;100985.31;;;6.89;100.00
5966;BME280;3009;43.224;27.976;2023-01-09T05:56:15;100980.25;;;6.87;100.00
5966;BME280;3009;43.224;27.976;2023-01-09T05:58:43;100984.75;;;6.97;100.00
5966;BME280;3009;43.224;27.976;2023-01-09T06:01:11;100984.22;;;6.95;100.00
5966;BME280;3009;43.224;27.976;2023-01-09T06:03:39;100993.56;;;6.98;100.00
5966;BME280;3009;43.224;27.976;2023-01-09T06:06:07;100988.22;;;7.03;100.00
5966;BME280;3009;43.224;27.976;2023-01-09T06:08:35;100986.34;;;7.03;100.00
5966;BME280;3009;43.224;27.976;2023-01-09T06:11:05;100982.38;;;7.01;100.00
5966;BME280;3009;43.224;27.976;2023-01-09T06:13:33;100993.00;;;7.06;100.00
5966;BME280;3009;43.224;27.976;2023-01-09T06:16:01;100989.03;;;7.08;100.00
5966;BME280;3009;43.224;27.976;2023-01-09T06:18:29;100999.69;;;7.08;100.00
5966;BME280;3009;43.224;27.976;2023-01-09T06:20:58;100995.66;;;7.16;100.00
5966;BME280;3009;43.224;27.976;2023-01-09T06:23:26;100991.91;;;7.33;100.00
5966;BME280;3009;43.224;27.976;2023-01-09T06:25:54;100994.00;;;7.46;100.00
5966;BME280;3009;43.224;27.976;2023-01-09T06:28:23;100990.22;;;7.57;100.00
5966;BME280;3009;43.224;27.976;2023-01-09T06:30:52;100991.31;;;7.56;100.00
5966;BME280;3009;43.224;27.976;2023-01-09T06:33:20;100988.13;;;7.49;100.00
5966;BME280;3009;43.224;27.976;2023-01-09T06:35:48;100983.03;;;7.58;100.00
5966;BME280;3009;43.224;27.976;2023-01-09T06:38:16;100990.44;;;7.76;100.00
5966;BME280;3009;43.224;27.976;2023-01-09T06:40:44;100990.13;;;7.88;100.00
5966;BME280;3009;43.224;27.976;2023-01-09T06:43:13;100986.34;;;7.89;100.00
5966;BME280;3009;43.224;27.976;2023-01-09T06:45:42;100992.72;;;7.98;99.32
5966;BME280;3009;43.224;27.976;2023-01-09T06:48:11;100987.59;;;8.07;99.30
5966;BME280;3009;43.224;27.976;2023-01-09T06:50:39;100991.00;;;8.18;98.82
5966;BME280;3009;43.224;27.976;2023-01-09T06:53:07;100983.31;;;8.11;99.51
5966;BME280;3009;43.224;27.976;2023-01-09T06:55:36;100988.59;;;8.22;100.00
5966;BME280;3009;43.224;27.976;2023-01-09T06:58:04;100981.38;;;8.22;99.07
5966;BME280;3009;43.224;27.976;2023-01-09T07:00:38;100993.16;;;8.16;98.59
5966;BME280;3009;43.224;27.976;2023-01-09T07:03:08;100989.16;;;8.19;98.74
5966;BME280;3009;43.224;27.976;2023-01-09T07:05:39;100986.44;;;8.24;97.92
5966;BME280;3009;43.224;27.976;2023-01-09T07:08:08;100982.63;;;8.35;97.86
5966;BME280;3009;43.224;27.976;2023-01-09T07:10:36;100981.78;;;8.45;98.14
5966;BME280;3009;43.224;27.976;2023-01-09T07:13:04;100973.50;;;8.46;97.85
5966;BME280;3009;43.224;27.976;2023-01-09T07:15:32;100968.84;;;8.62;98.02
5966;BME280;3009;43.224;27.976;2023-01-09T07:18:01;100984.81;;;8.67;97.42
5966;BME280;3009;43.224;27.976;2023-01-09T07:20:30;100981.59;;;8.71;95.21
5966;BME280;3009;43.224;27.976;2023-01-09T07:22:59;100981.66;;;8.60;93.12
5966;BME280;3009;43.224;27.976;2023-01-09T07:25:27;100979.97;;;8.75;92.42
5966;BME280;3009;43.224;27.976;2023-01-09T07:27:56;100981.03;;;8.74;92.24
5966;BME280;3009;43.224;27.976;2023-01-09T07:30:24;100981.00;;;8.79;93.84
5966;BME280;3009;43.224;27.976;2023-01-09T07:32:52;100974.38;;;8.71;93.42
5966;BME280;3009;43.224;27.976;2023-01-09T07:35:21;100973.50;;;8.81;93.12
5966;BME280;3009;43.224;27.976;2023-01-09T07:37:50;100977.72;;;8.87;90.29
5966;BME280;3009;43.224;27.976;2023-01-09T07:40:18;100973.25;;;9.07;89.29
5966;BME280;3009;43.224;27.976;2023-01-09T07:42:47;100970.66;;;8.96;89.92
5966;BME280;3009;43.224;27.976;2023-01-09T07:45:15;100974.56;;;9.09;90.42
5966;BME280;3009;43.224;27.976;2023-01-09T07:47:43;100981.44;;;8.91;88.12
5966;BME280;3009;43.224;27.976;2023-01-09T07:50:11;100981.44;;;8.91;88.75
5966;BME280;3009;43.224;27.976;2023-01-09T07:52:39;100988.25;;;9.02;88.35
5966;BME280;3009;43.224;27.976;2023-01-09T07:55:09;100976.22;;;9.05;88.40
5966;BME280;3009;43.224;27.976;2023-01-09T07:57:38;100979.56;;;9.16;87.63
5966;BME280;3009;43.224;27.976;2023-01-09T08:00:07;100976.03;;;9.20;88.06
5966;BME280;3009;43.224;27.976;2023-01-09T08:02:36;100979.81;;;9.19;87.10
5966;BME280;3009;43.224;27.976;2023-01-09T08:05:05;100975.56;;;9.13;88.42
5966;BME280;3009;43.224;27.976;2023-01-09T08:07:34;100971.53;;;9.16;88.61
5966;BME280;3009;43.224;27.976;2023-01-09T08:10:03;100967.72;;;9.22;88.66
5966;BME280;3009;43.224;27.976;2023-01-09T08:12:32;100971.09;;;9.33;87.64
5966;BME280;3009;43.224;27.976;2023-01-09T08:15:01;100972.06;;;9.18;86.65
5966;BME280;3009;43.224;27.976;2023-01-09T08:17:29;100962.06;;;9.29;86.88
5966;BME280;3009;43.224;27.976;2023-01-09T08:19:57;100969.81;;;9.30;87.06
5966;BME280;3009;43.224;27.976;2023-01-09T08:22:25;100976.88;;;9.21;87.30
5966;BME280;3009;43.224;27.976;2023-01-09T08:24:53;100979.34;;;9.12;88.76
5966;BME280;3009;43.224;27.976;2023-01-09T08:27:21;100973.34;;;9.26;87.29
5966;BME280;3009;43.224;27.976;2023-01-09T08:29:51;100972.75;;;9.29;87.07
5966;BME280;3009;43.224;27.976;2023-01-09T08:32:19;100975.31;;;9.39;88.30
5966;BME280;3009;43.224;27.976;2023-01-09T08:34:48;100971.63;;;9.35;89.30
5966;BME280;3009;43.224;27.976;2023-01-09T08:37:16;100962.44;;;9.17;87.46
5966;BME280;3009;43.224;27.976;2023-01-09T08:39:44;100964.47;;;9.01;87.64
5966;BME280;3009;43.224;27.976;2023-01-09T08:42:14;100963.69;;;9.00;89.19
5966;BME280;3009;43.224;27.976;2023-01-09T08:45:05;100956.53;;;8.91;90.17
5966;BME280;3009;43.224;27.976;2023-01-09T08:47:51;100950.81;;;9.27;89.46
5966;BME280;3009;43.224;27.976;2023-01-09T08:50:19;100947.94;;;9.23;89.10
5966;BME280;3009;43.224;27.976;2023-01-09T08:52:47;100953.34;;;9.42;87.38
5966;BME280;3009;43.224;27.976;2023-01-09T08:55:16;100942.84;;;9.46;86.85
5966;BME280;3009;43.224;27.976;2023-01-09T08:57:47;100943.34;;;9.48;86.76
5966;BME280;3009;43.224;27.976;2023-01-09T09:00:19;100939.59;;;9.49;86.16
5966;BME280;3009;43.224;27.976;2023-01-09T09:02:50;100941.22;;;9.50;86.29
5966;BME280;3009;43.224;27.976;2023-01-09T09:05:19;100930.34;;;9.60;86.89
5966;BME280;3009;43.224;27.976;2023-01-09T09:07:48;100929.94;;;9.53;85.54
5966;BME280;3009;43.224;27.976;2023-01-09T09:10:17;100931.88;;;9.47;85.03
5966;BME280;3009;43.224;27.976;2023-01-09T09:12:47;100929.94;;;9.53;86.24
5966;BME280;3009;43.224;27.976;2023-01-09T09:15:16;100916.97;;;9.60;86.63
5966;BME280;3009;43.224;27.976;2023-01-09T09:17:52;100903.81;;;9.64;85.22
5966;BME280;3009;43.224;27.976;2023-01-09T09:20:21;100900.78;;;9.70;86.29
5966;BME280;3009;43.224;27.976;2023-01-09T09:22:50;100900.59;;;9.86;85.83
5966;BME280;3009;43.224;27.976;2023-01-09T09:25:19;100890.59;;;9.72;85.21
5966;BME280;3009;43.224;27.976;2023-01-09T09:27:47;100892.03;;;9.84;84.22
5966;BME280;3009;43.224;27.976;2023-01-09T09:30:18;100888.19;;;9.90;84.85
5966;BME280;3009;43.224;27.976;2023-01-09T09:32:46;100886.88;;;10.06;84.51
5966;BME280;3009;43.224;27.976;2023-01-09T09:35:17;100881.16;;;10.13;83.77
5966;BME280;3009;43.224;27.976;2023-01-09T09:37:54;100880.19;;;10.04;83.91
5966;BME280;3009;43.224;27.976;2023-01-09T09:40:49;100875.81;;;9.75;84.61
5966;BME280;3009;43.224;27.976;2023-01-09T09:43:38;100875.09;;;9.69;86.32
5966;BME280;3009;43.224;27.976;2023-01-09T09:46:31;100886.09;;;9.87;85.60
5966;BME280;3009;43.224;27.976;2023-01-09T09:49:09;100879.56;;;9.93;85.15
5966;BME280;3009;43.224;27.976;2023-01-09T09:51:51;100878.78;;;9.73;84.76
5966;BME280;3009;43.224;27.976;2023-01-09T09:54:26;100864.38;;;9.69;85.21
5966;BME280;3009;43.224;27.976;2023-01-09T09:57:00;100864.50;;;9.78;86.33
5966;BME280;3009;43.224;27.976;2023-01-09T09:59:30;100857.50;;;10.01;87.18
5966;BME280;3009;43.224;27.976;2023-01-09T10:02:03;100854.88;;;9.96;86.67
5966;BME280;3009;43.224;27.976;2023-01-09T10:04:41;100866.41;;;9.78;84.80
5966;BME280;3009;43.224;27.976;2023-01-09T10:07:19;100859.34;;;10.01;84.44
5966;BME280;3009;43.224;27.976;2023-01-09T10:09:50;100850.53;;;9.81;85.26
5966;BME280;3009;43.224;27.976;2023-01-09T10:12:26;100844.75;;;9.93;85.63
5966;BME280;3009;43.224;27.976;2023-01-09T10:14:56;100837.13;;;10.00;85.58
5966;BME280;3009;43.224;27.976;2023-01-09T10:17:33;100830.16;;;10.18;84.86
5966;BME280;3009;43.224;27.976;2023-01-09T10:20:26;100830.34;;;10.22;84.35
5966;BME280;3009;43.224;27.976;2023-01-09T10:23:13;100836.00;;;10.20;84.61
5966;BME280;3009;43.224;27.976;2023-01-09T10:25:48;100832.03;;;10.18;85.04
5966;BME280;3009;43.224;27.976;2023-01-09T10:28:29;100827.50;;;10.32;84.62
5966;BME280;3009;43.224;27.976;2023-01-09T10:31:09;100823.16;;;10.36;84.73
5966;BME280;3009;43.224;27.976;2023-01-09T10:33:50;100826.47;;;10.28;85.29
5966;BME280;3009;43.224;27.976;2023-01-09T10:36:33;100821.63;;;10.16;84.09
5966;BME280;3009;43.224;27.976;2023-01-09T10:39:12;100817.38;;;9.96;85.88
5966;BME280;3009;43.224;27.976;2023-01-09T10:41:50;100819.22;;;10.15;85.60
5966;BME280;3009;43.224;27.976;2023-01-09T10:44:24;100809.47;;;10.05;86.13
5966;BME280;3009;43.224;27.976;2023-01-09T10:46:54;100803.56;;;9.89;86.89
5966;BME280;3009;43.224;27.976;2023-01-09T10:49:23;100799.78;;;9.90;88.37
5966;BME280;3009;43.224;27.976;2023-01-09T10:51:57;100791.44;;;10.10;86.54
5966;BME280;3009;43.224;27.976;2023-01-09T10:54:29;100790.00;;;9.99;87.38
5966;BME280;3009;43.224;27.976;2023-01-09T10:56:59;100787.25;;;10.04;88.11
5966;BME280;3009;43.224;27.976;2023-01-09T10:59:32;100786.22;;;10.00;89.01
5966;BME280;3009;43.224;27.976;2023-01-09T11:02:00;100781.88;;;9.71;88.25
5966;BME280;3009;43.224;27.976;2023-01-09T11:04:30;100783.44;;;9.91;89.00
5966;BME280;3009;43.224;27.976;2023-01-09T11:07:02;100778.06;;;9.91;89.93
5966;BME280;3009;43.224;27.976;2023-01-09T11:09:55;100779.28;;;9.66;90.28
5966;BME280;3009;43.224;27.976;2023-01-09T11:12:25;100781.72;;;9.82;90.48
5966;BME280;3009;43.224;27.976;2023-01-09T11:14:53;100777.13;;;10.01;88.99
5966;BME280;3009;43.224;27.976;2023-01-09T11:17:25;100773.22;;;9.93;89.35
5966;BME280;3009;43.224;27.976;2023-01-09T11:20:01;100776.50;;;9.90;89.23
5966;BME280;3009;43.224;27.976;2023-01-09T11:22:42;100767.88;;;9.93;88.76
5966;BME280;3009;43.224;27.976;2023-01-09T11:25:14;100769.09;;;10.01;88.38
5966;BME280;3009;43.224;27.976;2023-01-09T11:27:43;100767.88;;;9.93;88.70
5966;BME280;3009;43.224;27.976;2023-01-09T11:30:20;100770.63;;;9.88;88.75
5966;BME280;3009;43.224;27.976;2023-01-09T11:32:53;100765.50;;;9.92;89.72
5966;BME280;3009;43.224;27.976;2023-01-09T11:35:24;100767.22;;;10.16;89.56
5966;BME280;3009;43.224;27.976;2023-01-09T11:38:02;100763.75;;;10.29;88.32
5966;BME280;3009;43.224;27.976;2023-01-09T11:40:38;100757.69;;;10.09;88.32
5966;BME280;3009;43.224;27.976;2023-01-09T11:43:14;100757.16;;;9.93;88.64
5966;BME280;3009;43.224;27.976;2023-01-09T11:45:48;100749.84;;;10.13;88.25
5966;BME280;3009;43.224;27.976;2023-01-09T11:48:29;100748.63;;;10.05;88.51
5966;BME280;3009;43.224;27.976;2023-01-09T11:51:00;100746.84;;;10.01;89.00
5966;BME280;3009;43.224;27.976;2023-01-09T11:53:28;100745.78;;;10.16;89.27
5966;BME280;3009;43.224;27.976;2023-01-09T11:56:11;100743.78;;;10.07;89.88
5966;BME280;3009;43.224;27.976;2023-01-09T11:58:41;100746.97;;;10.09;90.77
5966;BME280;3009;43.224;27.976;2023-01-09T12:01:21;100743.34;;;9.86;91.35
5966;BME280;3009;43.224;27.976;2023-01-09T12:04:09;100742.03;;;9.84;91.52
5966;BME280;3009;43.224;27.976;2023-01-09T12:06:45;100732.34;;;9.88;92.40
5966;BME280;3009;43.224;27.976;2023-01-09T12:09:25;100744.38;;;9.71;94.15
5966;BME280;3009;43.224;27.976;2023-01-09T12:12:02;100735.53;;;10.04;94.80
5966;BME280;3009;43.224;27.976;2023-01-09T12:14:40;100735.81;;;10.02;93.51
5966;BME280;3009;43.224;27.976;2023-01-09T12:17:39;100738.72;;;10.06;93.51
5966;BME280;3009;43.224;27.976;2023-01-09T12:20:36;100736.41;;;9.99;92.94
5966;BME280;3009;43.224;27.976;2023-01-09T12:23:23;100727.75;;;9.74;93.85
5966;BME280;3009;43.224;27.976;2023-01-09T12:26:04;100719.81;;;9.69;94.44
5966;BME280;3009;43.224;27.976;2023-01-09T12:28:51;100726.81;;;9.65;95.02
5966;BME280;3009;43.224;27.976;2023-01-09T12:31:31;100723.72;;;9.39;95.43
5966;BME280;3009;43.224;27.976;2023-01-09T12:34:13;100723.38;;;9.46;95.26
5966;BME280;3009;43.224;27.976;2023-01-09T12:36:52;100720.78;;;9.40;96.26
5966;BME280;3009;43.224;27.976;2023-01-09T12:39:32;100715.94;;;9.43;96.26
5966;BME280;3009;43.224;27.976;2023-01-09T12:42:26;100717.72;;;9.66;95.75
5966;BME280;3009;43.224;27.976;2023-01-09T12:45:09;100716.38;;;9.50;95.44
5966;BME280;3009;43.224;27.976;2023-01-09T12:47:44;100707.97;;;9.37;94.67
5966;BME280;3009;43.224;27.976;2023-01-09T12:50:37;100711.66;;;9.42;96.31
5966;BME280;3009;43.224;27.976;2023-01-09T12:53:17;100702.06;;;9.40;96.99
5966;BME280;3009;43.224;27.976;2023-01-09T12:55:52;100706.97;;;9.33;99.09
5966;BME280;3009;43.224;27.976;2023-01-09T12:58:30;100707.91;;;9.43;99.20
5966;BME280;3009;43.224;27.976;2023-01-09T13:01:03;100713.13;;;9.34;99.61
5966;BME280;3009;43.224;27.976;2023-01-09T13:03:36;100711.59;;;9.28;100.00
5966;BME280;3009;43.224;27.976;2023-01-09T13:06:11;100710.66;;;8.99;100.00
5966;BME280;3009;43.224;27.976;2023-01-09T13:08:44;100705.59;;;8.98;100.00
5966;BME280;3009;43.224;27.976;2023-01-09T13:11:18;100703.75;;;8.98;100.00
5966;BME280;3009;43.224;27.976;2023-01-09T13:13:51;100711.47;;;9.00;100.00
5966;BME280;3009;43.224;27.976;2023-01-09T13:16:27;100718.81;;;8.89;100.00
5966;BME280;3009;43.224;27.976;2023-01-09T13:19:02;100711.53;;;8.76;100.00
5966;BME280;3009;43.224;27.976;2023-01-09T13:21:33;100709.06;;;8.79;100.00
5966;BME280;3009;43.224;27.976;2023-01-09T13:24:06;100709.81;;;8.85;100.00
5966;BME280;3009;43.224;27.976;2023-01-09T13:26:43;100710.38;;;8.82;99.62
5966;BME280;3009;43.224;27.976;2023-01-09T13:29:15;100715.56;;;8.73;98.17
5966;BME280;3009;43.224;27.976;2023-01-09T13:32:07;100709.75;;;8.66;99.26
5966;BME280;3009;43.224;27.976;2023-01-09T13:34:44;100705.16;;;8.72;98.50
5966;BME280;3009;43.224;27.976;2023-01-09T13:37:21;100713.97;;;8.72;99.60
5966;BME280;3009;43.224;27.976;2023-01-09T13:39:57;100706.53;;;8.69;99.73
5966;BME280;3009;43.224;27.976;2023-01-09T13:42:26;100702.03;;;8.64;100.00